sensor_id;sensor_type;location;lat;lon;timestamp;P1;durP1;ratioP1;P2;durP2;ratioP2
51925;SDS011;37952;51.938;15.480;2022-11-20T00:00:50;6.20;;;5.80;;
51925;SDS011;37952;51.938;15.480;2022-11-20T00:03:54;6.40;;;5.90;;
51925;SDS011;37952;51.938;15.480;2022-11-20T00:06:57;6.40;;;6.00;;
51925;SDS011;37952;51.938;15.480;2022-11-20T00:09:58;5.10;;;4.70;;
51925;SDS011;37952;51.938;15.480;2022-11-20T00:13:00;5.40;;;4.90;;
51925;SDS011;37952;51.938;15.480;2022-11-20T00:16:02;5.10;;;4.70;;
51925;SDS011;37952;51.938;15.480;2022-11-20T00:19:06;5.10;;;4.80;;
51925;SDS011;37952;51.938;15.480;2022-11-20T00:22:07;5.00;;;4.70;;
51925;SDS011;37952;51.938;15.480;2022-11-20T00:25:08;6.10;;;5.60;;
51925;SDS011;37952;51.938;15.480;2022-11-20T00:28:10;5.70;;;5.30;;
51925;SDS011;37952;51.938;15.480;2022-11-20T00:31:13;4.90;;;4.60;;
51925;SDS011;37952;51.938;15.480;2022-11-20T00:34:15;5.40;;;5.00;;
51925;SDS011;37952;51.938;15.480;2022-11-20T00:37:17;5.40;;;4.90;;
51925;SDS011;37952;51.938;15.480;2022-11-20T00:40:19;5.30;;;4.80;;
51925;SDS011;37952;51.938;15.480;2022-11-20T00:43:22;7.30;;;5.70;;
51925;SDS011;37952;51.938;15.480;2022-11-20T00:46:25;5.90;;;5.30;;
51925;SDS011;37952;51.938;15.480;2022-11-20T00:49:28;5.40;;;5.10;;
51925;SDS011;37952;51.938;15.480;2022-11-20T00:52:29;5.60;;;5.10;;
51925;SDS011;37952;51.938;15.480;2022-11-20T00:55:30;7.10;;;5.80;;
51925;SDS011;37952;51.938;15.480;2022-11-20T00:58:33;5.90;;;5.50;;
51925;SDS011;37952;51.938;15.480;2022-11-20T01:01:36;6.20;;;5.60;;
51925;SDS011;37952;51.938;15.480;2022-11-20T01:04:38;5.50;;;5.10;;
51925;SDS011;37952;51.938;15.480;2022-11-20T01:07:41;5.90;;;5.40;;
51925;SDS011;37952;51.938;15.480;2022-11-20T01:10:43;6.10;;;5.60;;
51925;SDS011;37952;51.938;15.480;2022-11-20T01:13:45;6.00;;;5.50;;
51925;SDS011;37952;51.938;15.480;2022-11-20T01:16:49;5.70;;;5.20;;
51925;SDS011;37952;51.938;15.480;2022-11-20T01:19:52;6.30;;;5.70;;
51925;SDS011;37952;51.938;15.480;2022-11-20T01:22:53;6.90;;;6.20;;
51925;SDS011;37952;51.938;15.480;2022-11-20T01:25:55;6.20;;;5.80;;
51925;SDS011;37952;51.938;15.480;2022-11-20T01:28:58;7.10;;;5.60;;
51925;SDS011;37952;51.938;15.480;2022-11-20T01:32:01;6.50;;;5.90;;
51925;SDS011;37952;51.938;15.480;2022-11-20T01:35:04;9.60;;;6.50;;
51925;SDS011;37952;51.938;15.480;2022-11-20T01:38:06;6.20;;;5.70;;
51925;SDS011;37952;51.938;15.480;2022-11-20T01:41:07;5.90;;;5.40;;
51925;SDS011;37952;51.938;15.480;2022-11-20T01:44:11;7.00;;;5.70;;
51925;SDS011;37952;51.938;15.480;2022-11-20T01:50:36;6.10;;;5.60;;
51925;SDS011;37952;51.938;15.480;2022-11-20T01:53:37;6.30;;;5.80;;
51925;SDS011;37952;51.938;15.480;2022-11-20T01:56:40;6.30;;;5.80;;
51925;SDS011;37952;51.938;15.480;2022-11-20T02:00:09;5.60;;;5.10;;
51925;SDS011;37952;51.938;15.480;2022-11-20T02:03:15;5.00;;;4.70;;
51925;SDS011;37952;51.938;15.480;2022-11-20T02:06:24;6.20;;;5.80;;
51925;SDS011;37952;51.938;15.480;2022-11-20T02:09:29;6.80;;;5.90;;
51925;SDS011;37952;51.938;15.480;2022-11-20T02:12:30;5.60;;;5.10;;
51925;SDS011;37952;51.938;15.480;2022-11-20T02:15:51;5.90;;;5.40;;
51925;SDS011;37952;51.938;15.480;2022-11-20T02:18:53;6.20;;;5.70;;
51925;SDS011;37952;51.938;15.480;2022-11-20T02:25:09;5.90;;;5.50;;
51925;SDS011;37952;51.938;15.480;2022-11-20T02:28:11;6.60;;;6.00;;
51925;SDS011;37952;51.938;15.480;2022-11-20T02:31:12;5.80;;;5.40;;
51925;SDS011;37952;51.938;15.480;2022-11-20T02:34:14;6.70;;;5.90;;
51925;SDS011;37952;51.938;15.480;2022-11-20T02:37:15;6.80;;;6.20;;
51925;SDS011;37952;51.938;15.480;2022-11-20T02:40:19;7.40;;;6.80;;
51925;SDS011;37952;51.938;15.480;2022-11-20T02:43:20;8.10;;;7.20;;
51925;SDS011;37952;51.938;15.480;2022-11-20T02:46:22;8.30;;;7.30;;
51925;SDS011;37952;51.938;15.480;2022-11-20T02:49:24;8.00;;;7.30;;
51925;SDS011;37952;51.938;15.480;2022-11-20T02:52:26;7.50;;;6.80;;
51925;SDS011;37952;51.938;15.480;2022-11-20T02:55:27;8.10;;;6.30;;
51925;SDS011;37952;51.938;15.480;2022-11-20T02:58:29;8.60;;;7.80;;
51925;SDS011;37952;51.938;15.480;2022-11-20T03:01:30;8.70;;;7.80;;
51925;SDS011;37952;51.938;15.480;2022-11-20T03:04:32;10.40;;;8.40;;
51925;SDS011;37952;51.938;15.480;2022-11-20T03:07:33;8.30;;;7.60;;
51925;SDS011;37952;51.938;15.480;2022-11-20T03:10:35;7.50;;;6.90;;
51925;SDS011;37952;51.938;15.480;2022-11-20T03:13:36;9.10;;;7.40;;
51925;SDS011;37952;51.938;15.480;2022-11-20T03:16:38;9.00;;;7.70;;
51925;SDS011;37952;51.938;15.480;2022-11-20T03:19:39;9.50;;;7.20;;
51925;SDS011;37952;51.938;15.480;2022-11-20T03:22:41;8.30;;;7.50;;
51925;SDS011;37952;51.938;15.480;2022-11-20T03:25:42;7.80;;;7.00;;
51925;SDS011;37952;51.938;15.480;2022-11-20T03:28:48;7.50;;;6.80;;
51925;SDS011;37952;51.938;15.480;2022-11-20T03:31:51;7.80;;;7.10;;
51925;SDS011;37952;51.938;15.480;2022-11-20T03:34:52;9.20;;;6.70;;
51925;SDS011;37952;51.938;15.480;2022-11-20T03:37:54;6.80;;;6.30;;
51925;SDS011;37952;51.938;15.480;2022-11-20T03:41:01;7.40;;;6.70;;
51925;SDS011;37952;51.938;15.480;2022-11-20T03:44:10;7.30;;;6.60;;
51925;SDS011;37952;51.938;15.480;2022-11-20T03:47:13;7.00;;;6.40;;
51925;SDS011;37952;51.938;15.480;2022-11-20T03:50:14;7.90;;;7.10;;
51925;SDS011;37952;51.938;15.480;2022-11-20T03:53:16;7.40;;;6.80;;
51925;SDS011;37952;51.938;15.480;2022-11-20T03:56:19;7.60;;;6.90;;
51925;SDS011;37952;51.938;15.480;2022-11-20T03:59:24;8.20;;;7.40;;
51925;SDS011;37952;51.938;15.480;2022-11-20T04:02:25;8.90;;;7.20;;
51925;SDS011;37952;51.938;15.480;2022-11-20T04:05:27;6.70;;;6.00;;
51925;SDS011;37952;51.938;15.480;2022-11-20T04:08:29;7.20;;;6.50;;
51925;SDS011;37952;51.938;15.480;2022-11-20T04:11:33;8.20;;;7.00;;
51925;SDS011;37952;51.938;15.480;2022-11-20T04:14:36;9.00;;;7.60;;
51925;SDS011;37952;51.938;15.480;2022-11-20T04:17:37;9.70;;;8.00;;
51925;SDS011;37952;51.938;15.480;2022-11-20T04:20:39;11.90;;;8.50;;
51925;SDS011;37952;51.938;15.480;2022-11-20T04:23:42;8.50;;;7.70;;
51925;SDS011;37952;51.938;15.480;2022-11-20T04:26:44;12.40;;;9.20;;
51925;SDS011;37952;51.938;15.480;2022-11-20T04:29:45;8.10;;;7.40;;
51925;SDS011;37952;51.938;15.480;2022-11-20T04:32:47;10.80;;;9.70;;
51925;SDS011;37952;51.938;15.480;2022-11-20T04:35:48;11.40;;;9.30;;
51925;SDS011;37952;51.938;15.480;2022-11-20T04:38:53;10.40;;;8.50;;
51925;SDS011;37952;51.938;15.480;2022-11-20T04:41:58;13.60;;;7.80;;
51925;SDS011;37952;51.938;15.480;2022-11-20T04:45:18;15.70;;;8.20;;
51925;SDS011;37952;51.938;15.480;2022-11-20T04:48:20;13.60;;;9.10;;
51925;SDS011;37952;51.938;15.480;2022-11-20T04:51:22;10.80;;;9.10;;
51925;SDS011;37952;51.938;15.480;2022-11-20T04:54:24;9.40;;;8.60;;
51925;SDS011;37952;51.938;15.480;2022-11-20T04:57:26;15.30;;;12.10;;
51925;SDS011;37952;51.938;15.480;2022-11-20T05:00:27;12.80;;;9.80;;
51925;SDS011;37952;51.938;15.480;2022-11-20T05:03:29;12.30;;;10.10;;
51925;SDS011;37952;51.938;15.480;2022-11-20T05:06:31;14.40;;;11.10;;
51925;SDS011;37952;51.938;15.480;2022-11-20T05:09:33;13.70;;;11.10;;
51925;SDS011;37952;51.938;15.480;2022-11-20T05:12:34;15.00;;;10.70;;
51925;SDS011;37952;51.938;15.480;2022-11-20T05:15:36;15.50;;;11.80;;
51925;SDS011;37952;51.938;15.480;2022-11-20T05:18:37;14.60;;;11.10;;
51925;SDS011;37952;51.938;15.480;2022-11-20T05:21:40;16.20;;;11.50;;
51925;SDS011;37952;51.938;15.480;2022-11-20T05:24:41;11.80;;;10.00;;
51925;SDS011;37952;51.938;15.480;2022-11-20T05:27:45;17.10;;;11.10;;
51925;SDS011;37952;51.938;15.480;2022-11-20T05:30:49;15.70;;;11.00;;
51925;SDS011;37952;51.938;15.480;2022-11-20T05:33:51;15.00;;;11.00;;
51925;SDS011;37952;51.938;15.480;2022-11-20T05:36:53;15.60;;;11.30;;
51925;SDS011;37952;51.938;15.480;2022-11-20T05:39:54;17.50;;;10.60;;
51925;SDS011;37952;51.938;15.480;2022-11-20T05:42:56;12.10;;;10.80;;
51925;SDS011;37952;51.938;15.480;2022-11-20T05:45:57;16.20;;;11.60;;
51925;SDS011;37952;51.938;15.480;2022-11-20T05:49:00;15.50;;;11.80;;
51925;SDS011;37952;51.938;15.480;2022-11-20T05:52:02;16.00;;;11.60;;
51925;SDS011;37952;51.938;15.480;2022-11-20T05:55:03;21.30;;;11.90;;
51925;SDS011;37952;51.938;15.480;2022-11-20T05:58:05;21.30;;;12.90;;
51925;SDS011;37952;51.938;15.480;2022-11-20T06:01:08;15.80;;;10.80;;
51925;SDS011;37952;51.938;15.480;2022-11-20T06:04:12;17.50;;;11.30;;
51925;SDS011;37952;51.938;15.480;2022-11-20T06:07:13;19.00;;;12.50;;
51925;SDS011;37952;51.938;15.480;2022-11-20T06:10:15;16.60;;;12.20;;
51925;SDS011;37952;51.938;15.480;2022-11-20T06:13:16;17.80;;;12.40;;
51925;SDS011;37952;51.938;15.480;2022-11-20T06:19:45;19.00;;;12.60;;
51925;SDS011;37952;51.938;15.480;2022-11-20T06:22:47;20.90;;;14.30;;
51925;SDS011;37952;51.938;15.480;2022-11-20T06:25:48;19.20;;;13.00;;
51925;SDS011;37952;51.938;15.480;2022-11-20T06:32:19;17.90;;;12.10;;
51925;SDS011;37952;51.938;15.480;2022-11-20T06:35:20;20.30;;;12.00;;
51925;SDS011;37952;51.938;15.480;2022-11-20T06:38:22;14.70;;;11.00;;
51925;SDS011;37952;51.938;15.480;2022-11-20T06:41:23;17.50;;;12.00;;
51925;SDS011;37952;51.938;15.480;2022-11-20T06:44:26;17.60;;;12.80;;
51925;SDS011;37952;51.938;15.480;2022-11-20T06:47:27;13.70;;;11.40;;
51925;SDS011;37952;51.938;15.480;2022-11-20T06:50:29;17.90;;;12.90;;
51925;SDS011;37952;51.938;15.480;2022-11-20T06:53:31;18.70;;;12.90;;
51925;SDS011;37952;51.938;15.480;2022-11-20T06:56:34;17.70;;;12.70;;
51925;SDS011;37952;51.938;15.480;2022-11-20T06:59:35;16.20;;;12.90;;
51925;SDS011;37952;51.938;15.480;2022-11-20T07:02:37;16.70;;;11.50;;
51925;SDS011;37952;51.938;15.480;2022-11-20T07:05:38;20.00;;;13.20;;
51925;SDS011;37952;51.938;15.480;2022-11-20T07:08:41;16.60;;;12.20;;
51925;SDS011;37952;51.938;15.480;2022-11-20T07:11:42;18.60;;;11.70;;
51925;SDS011;37952;51.938;15.480;2022-11-20T07:14:44;16.70;;;12.20;;
51925;SDS011;37952;51.938;15.480;2022-11-20T07:17:51;18.40;;;12.90;;
51925;SDS011;37952;51.938;15.480;2022-11-20T07:20:53;16.10;;;12.10;;
51925;SDS011;37952;51.938;15.480;2022-11-20T07:23:54;14.10;;;11.30;;
51925;SDS011;37952;51.938;15.480;2022-11-20T07:26:56;19.00;;;13.30;;
51925;SDS011;37952;51.938;15.480;2022-11-20T07:29:57;22.00;;;14.30;;
51925;SDS011;37952;51.938;15.480;2022-11-20T07:32:59;23.80;;;15.10;;
51925;SDS011;37952;51.938;15.480;2022-11-20T07:36:01;20.40;;;12.60;;
51925;SDS011;37952;51.938;15.480;2022-11-20T07:39:03;17.00;;;12.70;;
51925;SDS011;37952;51.938;15.480;2022-11-20T07:42:05;15.90;;;11.90;;
51925;SDS011;37952;51.938;15.480;2022-11-20T07:45:07;14.50;;;11.60;;
51925;SDS011;37952;51.938;15.480;2022-11-20T07:48:09;19.50;;;13.10;;
51925;SDS011;37952;51.938;15.480;2022-11-20T07:51:10;17.80;;;13.10;;
51925;SDS011;37952;51.938;15.480;2022-11-20T07:54:12;18.60;;;12.60;;
51925;SDS011;37952;51.938;15.480;2022-11-20T07:57:15;19.50;;;11.90;;
51925;SDS011;37952;51.938;15.480;2022-11-20T08:00:16;17.80;;;12.50;;
51925;SDS011;37952;51.938;15.480;2022-11-20T08:03:18;19.20;;;13.60;;
51925;SDS011;37952;51.938;15.480;2022-11-20T08:06:25;11.90;;;10.30;;
51925;SDS011;37952;51.938;15.480;2022-11-20T08:09:27;16.00;;;12.30;;
51925;SDS011;37952;51.938;15.480;2022-11-20T08:12:30;21.00;;;13.70;;
51925;SDS011;37952;51.938;15.480;2022-11-20T08:15:50;17.40;;;13.10;;
51925;SDS011;37952;51.938;15.480;2022-11-20T08:18:54;16.60;;;12.40;;
51925;SDS011;37952;51.938;15.480;2022-11-20T08:21:56;17.40;;;12.70;;
51925;SDS011;37952;51.938;15.480;2022-11-20T08:24:57;17.30;;;12.50;;
51925;SDS011;37952;51.938;15.480;2022-11-20T08:27:59;12.10;;;10.80;;
51925;SDS011;37952;51.938;15.480;2022-11-20T08:31:12;17.30;;;11.70;;
51925;SDS011;37952;51.938;15.480;2022-11-20T08:34:13;16.50;;;11.50;;
51925;SDS011;37952;51.938;15.480;2022-11-20T08:37:20;16.30;;;12.70;;
51925;SDS011;37952;51.938;15.480;2022-11-20T08:40:21;19.00;;;12.80;;
51925;SDS011;37952;51.938;15.480;2022-11-20T08:43:22;15.70;;;11.40;;
51925;SDS011;37952;51.938;15.480;2022-11-20T08:46:24;16.10;;;11.70;;
51925;SDS011;37952;51.938;15.480;2022-11-20T08:49:27;15.40;;;11.10;;
51925;SDS011;37952;51.938;15.480;2022-11-20T08:52:29;18.90;;;12.90;;
51925;SDS011;37952;51.938;15.480;2022-11-20T08:55:31;20.50;;;11.80;;
51925;SDS011;37952;51.938;15.480;2022-11-20T08:58:32;19.70;;;13.40;;
51925;SDS011;37952;51.938;15.480;2022-11-20T09:01:54;19.70;;;14.40;;
51925;SDS011;37952;51.938;15.480;2022-11-20T09:04:55;16.60;;;13.00;;
51925;SDS011;37952;51.938;15.480;2022-11-20T09:07:57;18.60;;;12.80;;
51925;SDS011;37952;51.938;15.480;2022-11-20T09:11:00;17.00;;;12.00;;
51925;SDS011;37952;51.938;15.480;2022-11-20T09:14:01;15.10;;;11.20;;
51925;SDS011;37952;51.938;15.480;2022-11-20T09:17:03;16.10;;;12.60;;
51925;SDS011;37952;51.938;15.480;2022-11-20T09:20:05;18.10;;;13.10;;
51925;SDS011;37952;51.938;15.480;2022-11-20T09:23:07;17.00;;;12.20;;
51925;SDS011;37952;51.938;15.480;2022-11-20T09:26:09;17.50;;;12.70;;
51925;SDS011;37952;51.938;15.480;2022-11-20T09:32:39;19.10;;;13.60;;
51925;SDS011;37952;51.938;15.480;2022-11-20T09:35:42;19.50;;;14.00;;
51925;SDS011;37952;51.938;15.480;2022-11-20T09:38:47;22.30;;;14.40;;
51925;SDS011;37952;51.938;15.480;2022-11-20T09:45:08;17.00;;;14.10;;
51925;SDS011;37952;51.938;15.480;2022-11-20T09:48:20;17.10;;;12.80;;
51925;SDS011;37952;51.938;15.480;2022-11-20T09:51:28;14.90;;;11.60;;
51925;SDS011;37952;51.938;15.480;2022-11-20T09:54:58;15.10;;;11.50;;
51925;SDS011;37952;51.938;15.480;2022-11-20T09:58:05;17.20;;;12.30;;
51925;SDS011;37952;51.938;15.480;2022-11-20T10:01:10;18.40;;;13.70;;
51925;SDS011;37952;51.938;15.480;2022-11-20T10:04:19;13.90;;;11.00;;
51925;SDS011;37952;51.938;15.480;2022-11-20T10:07:30;16.90;;;12.90;;
51925;SDS011;37952;51.938;15.480;2022-11-20T10:10:45;17.30;;;13.30;;
51925;SDS011;37952;51.938;15.480;2022-11-20T10:31:02;17.40;;;11.40;;
51925;SDS011;37952;51.938;15.480;2022-11-20T10:34:20;18.50;;;12.30;;
51925;SDS011;37952;51.938;15.480;2022-11-20T10:37:29;17.70;;;13.30;;
51925;SDS011;37952;51.938;15.480;2022-11-20T10:43:37;16.00;;;12.60;;
51925;SDS011;37952;51.938;15.480;2022-11-20T10:46:40;15.20;;;12.90;;
51925;SDS011;37952;51.938;15.480;2022-11-20T10:49:50;14.90;;;12.80;;
51925;SDS011;37952;51.938;15.480;2022-11-20T10:59:38;13.00;;;9.70;;
51925;SDS011;37952;51.938;15.480;2022-11-20T11:09:24;13.70;;;11.00;;
51925;SDS011;37952;51.938;15.480;2022-11-20T11:12:38;14.90;;;11.40;;
51925;SDS011;37952;51.938;15.480;2022-11-20T11:15:46;17.90;;;12.20;;
51925;SDS011;37952;51.938;15.480;2022-11-20T11:18:48;13.00;;;11.30;;
51925;SDS011;37952;51.938;15.480;2022-11-20T11:21:56;13.00;;;11.00;;
51925;SDS011;37952;51.938;15.480;2022-11-20T11:24:58;12.90;;;10.70;;
51925;SDS011;37952;51.938;15.480;2022-11-20T11:28:01;11.00;;;9.90;;
51925;SDS011;37952;51.938;15.480;2022-11-20T11:31:24;11.30;;;10.10;;
51925;SDS011;37952;51.938;15.480;2022-11-20T11:34:27;11.20;;;9.00;;
51925;SDS011;37952;51.938;15.480;2022-11-20T11:37:33;10.80;;;8.40;;
51925;SDS011;37952;51.938;15.480;2022-11-20T11:40:36;11.10;;;9.00;;
51925;SDS011;37952;51.938;15.480;2022-11-20T11:43:48;10.20;;;9.10;;
51925;SDS011;37952;51.938;15.480;2022-11-20T11:47:23;11.90;;;9.30;;
51925;SDS011;37952;51.938;15.480;2022-11-20T11:50:27;12.20;;;10.90;;
51925;SDS011;37952;51.938;15.480;2022-11-20T11:53:30;13.20;;;10.30;;
51925;SDS011;37952;51.938;15.480;2022-11-20T11:56:31;13.10;;;10.70;;
51925;SDS011;37952;51.938;15.480;2022-11-20T11:59:41;13.20;;;11.40;;
51925;SDS011;37952;51.938;15.480;2022-11-20T12:03:06;16.00;;;12.00;;
51925;SDS011;37952;51.938;15.480;2022-11-20T12:06:17;14.70;;;11.10;;
51925;SDS011;37952;51.938;15.480;2022-11-20T12:09:18;13.60;;;11.10;;
51925;SDS011;37952;51.938;15.480;2022-11-20T12:12:30;13.10;;;11.70;;
51925;SDS011;37952;51.938;15.480;2022-11-20T12:15:37;14.70;;;12.30;;
51925;SDS011;37952;51.938;15.480;2022-11-20T12:18:46;17.50;;;12.90;;
51925;SDS011;37952;51.938;15.480;2022-11-20T12:25:36;19.40;;;14.20;;
51925;SDS011;37952;51.938;15.480;2022-11-20T12:45:31;14.70;;;12.60;;
51925;SDS011;37952;51.938;15.480;2022-11-20T13:06:09;13.60;;;10.80;;
51925;SDS011;37952;51.938;15.480;2022-11-20T13:09:15;16.40;;;11.60;;
51925;SDS011;37952;51.938;15.480;2022-11-20T13:12:31;16.00;;;12.10;;
51925;SDS011;37952;51.938;15.480;2022-11-20T13:15:58;17.10;;;12.30;;
51925;SDS011;37952;51.938;15.480;2022-11-20T13:19:09;16.00;;;11.60;;
51925;SDS011;37952;51.938;15.480;2022-11-20T13:22:23;16.50;;;12.40;;
51925;SDS011;37952;51.938;15.480;2022-11-20T13:25:28;16.40;;;12.40;;
51925;SDS011;37952;51.938;15.480;2022-11-20T13:28:31;17.60;;;12.90;;
51925;SDS011;37952;51.938;15.480;2022-11-20T13:31:36;22.30;;;12.40;;
51925;SDS011;37952;51.938;15.480;2022-11-20T13:38:14;17.60;;;13.30;;
51925;SDS011;37952;51.938;15.480;2022-11-20T13:41:32;13.90;;;11.60;;
51925;SDS011;37952;51.938;15.480;2022-11-20T13:44:42;15.40;;;11.40;;
51925;SDS011;37952;51.938;15.480;2022-11-20T13:47:48;15.60;;;11.10;;
51925;SDS011;37952;51.938;15.480;2022-11-20T13:50:55;13.80;;;11.50;;
51925;SDS011;37952;51.938;15.480;2022-11-20T14:01:15;13.20;;;10.80;;
51925;SDS011;37952;51.938;15.480;2022-11-20T14:04:26;13.60;;;11.60;;
51925;SDS011;37952;51.938;15.480;2022-11-20T14:07:50;12.40;;;10.20;;
51925;SDS011;37952;51.938;15.480;2022-11-20T14:11:11;12.40;;;10.50;;
51925;SDS011;37952;51.938;15.480;2022-11-20T14:14:15;11.60;;;10.40;;
51925;SDS011;37952;51.938;15.480;2022-11-20T14:17:36;10.70;;;9.60;;
51925;SDS011;37952;51.938;15.480;2022-11-20T14:20:39;12.70;;;10.10;;
51925;SDS011;37952;51.938;15.480;2022-11-20T14:23:47;11.50;;;10.30;;
51925;SDS011;37952;51.938;15.480;2022-11-20T14:26:49;12.50;;;10.30;;
51925;SDS011;37952;51.938;15.480;2022-11-20T14:29:52;13.60;;;10.90;;
51925;SDS011;37952;51.938;15.480;2022-11-20T14:32:54;10.70;;;9.60;;
51925;SDS011;37952;51.938;15.480;2022-11-20T14:35:59;10.60;;;9.70;;
51925;SDS011;37952;51.938;15.480;2022-11-20T14:39:00;11.70;;;10.50;;
51925;SDS011;37952;51.938;15.480;2022-11-20T14:42:14;12.20;;;10.90;;
51925;SDS011;37952;51.938;15.480;2022-11-20T14:45:18;12.40;;;10.60;;
51925;SDS011;37952;51.938;15.480;2022-11-20T14:48:22;12.70;;;10.70;;
51925;SDS011;37952;51.938;15.480;2022-11-20T14:51:32;11.50;;;10.30;;
51925;SDS011;37952;51.938;15.480;2022-11-20T14:58:22;14.00;;;11.50;;
51925;SDS011;37952;51.938;15.480;2022-11-20T15:01:26;13.10;;;11.00;;
51925;SDS011;37952;51.938;15.480;2022-11-20T15:04:29;11.90;;;8.50;;
51925;SDS011;37952;51.938;15.480;2022-11-20T15:07:32;12.90;;;9.70;;
51925;SDS011;37952;51.938;15.480;2022-11-20T15:10:36;9.90;;;8.70;;
51925;SDS011;37952;51.938;15.480;2022-11-20T15:13:39;11.00;;;9.20;;
51925;SDS011;37952;51.938;15.480;2022-11-20T15:16:41;10.80;;;9.70;;
51925;SDS011;37952;51.938;15.480;2022-11-20T15:19:43;10.70;;;9.40;;
51925;SDS011;37952;51.938;15.480;2022-11-20T15:22:44;11.80;;;9.80;;
51925;SDS011;37952;51.938;15.480;2022-11-20T15:25:46;13.90;;;10.30;;
51925;SDS011;37952;51.938;15.480;2022-11-20T15:28:49;11.30;;;10.10;;
51925;SDS011;37952;51.938;15.480;2022-11-20T15:31:51;10.60;;;9.50;;
51925;SDS011;37952;51.938;15.480;2022-11-20T15:34:53;12.20;;;9.70;;
51925;SDS011;37952;51.938;15.480;2022-11-20T15:37:55;18.30;;;10.40;;
51925;SDS011;37952;51.938;15.480;2022-11-20T15:40:56;11.70;;;9.80;;
51925;SDS011;37952;51.938;15.480;2022-11-20T15:43:58;9.90;;;8.80;;
51925;SDS011;37952;51.938;15.480;2022-11-20T15:47:00;11.00;;;9.80;;
51925;SDS011;37952;51.938;15.480;2022-11-20T15:50:01;13.10;;;9.90;;
51925;SDS011;37952;51.938;15.480;2022-11-20T15:53:03;8.70;;;7.90;;
51925;SDS011;37952;51.938;15.480;2022-11-20T15:56:05;8.50;;;7.60;;
51925;SDS011;37952;51.938;15.480;2022-11-20T15:59:11;8.20;;;7.40;;
51925;SDS011;37952;51.938;15.480;2022-11-20T16:02:13;11.00;;;8.60;;
51925;SDS011;37952;51.938;15.480;2022-11-20T16:05:21;11.10;;;8.50;;
51925;SDS011;37952;51.938;15.480;2022-11-20T16:08:25;9.80;;;8.40;;
51925;SDS011;37952;51.938;15.480;2022-11-20T16:11:26;8.50;;;7.60;;
51925;SDS011;37952;51.938;15.480;2022-11-20T16:14:28;10.50;;;8.30;;
51925;SDS011;37952;51.938;15.480;2022-11-20T16:17:48;10.50;;;9.10;;
51925;SDS011;37952;51.938;15.480;2022-11-20T16:20:53;10.90;;;9.10;;
51925;SDS011;37952;51.938;15.480;2022-11-20T16:23:56;9.90;;;8.80;;
51925;SDS011;37952;51.938;15.480;2022-11-20T16:26:59;10.00;;;9.00;;
51925;SDS011;37952;51.938;15.480;2022-11-20T16:30:00;8.80;;;7.90;;
51925;SDS011;37952;51.938;15.480;2022-11-20T16:33:02;7.80;;;6.30;;
51925;SDS011;37952;51.938;15.480;2022-11-20T16:36:11;7.30;;;6.60;;
51925;SDS011;37952;51.938;15.480;2022-11-20T16:39:16;9.90;;;7.90;;
51925;SDS011;37952;51.938;15.480;2022-11-20T16:42:24;8.20;;;7.40;;
51925;SDS011;37952;51.938;15.480;2022-11-20T16:45:25;13.60;;;9.50;;
51925;SDS011;37952;51.938;15.480;2022-11-20T16:48:34;10.40;;;9.20;;
51925;SDS011;37952;51.938;15.480;2022-11-20T16:51:39;9.50;;;8.40;;
51925;SDS011;37952;51.938;15.480;2022-11-20T16:54:40;10.70;;;9.60;;
51925;SDS011;37952;51.938;15.480;2022-11-20T16:57:42;11.70;;;9.90;;
51925;SDS011;37952;51.938;15.480;2022-11-20T17:00:43;12.40;;;9.40;;
51925;SDS011;37952;51.938;15.480;2022-11-20T17:03:53;15.00;;;10.70;;
51925;SDS011;37952;51.938;15.480;2022-11-20T17:06:57;10.40;;;9.40;;
51925;SDS011;37952;51.938;15.480;2022-11-20T17:09:59;14.70;;;9.70;;
51925;SDS011;37952;51.938;15.480;2022-11-20T17:13:01;11.20;;;9.30;;
51925;SDS011;37952;51.938;15.480;2022-11-20T17:16:04;13.40;;;9.20;;
51925;SDS011;37952;51.938;15.480;2022-11-20T17:19:07;10.40;;;9.30;;
51925;SDS011;37952;51.938;15.480;2022-11-20T17:22:09;14.20;;;9.30;;
51925;SDS011;37952;51.938;15.480;2022-11-20T17:25:10;12.00;;;9.00;;
51925;SDS011;37952;51.938;15.480;2022-11-20T17:28:12;10.60;;;9.30;;
51925;SDS011;37952;51.938;15.480;2022-11-20T17:31:15;13.10;;;9.50;;
51925;SDS011;37952;51.938;15.480;2022-11-20T17:34:17;12.80;;;9.70;;
51925;SDS011;37952;51.938;15.480;2022-11-20T17:37:19;15.40;;;10.00;;
51925;SDS011;37952;51.938;15.480;2022-11-20T17:40:20;13.70;;;10.20;;
51925;SDS011;37952;51.938;15.480;2022-11-20T17:43:28;13.60;;;8.30;;
51925;SDS011;37952;51.938;15.480;2022-11-20T17:46:36;13.00;;;8.80;;
51925;SDS011;37952;51.938;15.480;2022-11-20T17:49:38;15.10;;;9.20;;
51925;SDS011;37952;51.938;15.480;2022-11-20T17:52:39;13.60;;;9.50;;
51925;SDS011;37952;51.938;15.480;2022-11-20T17:55:41;10.00;;;9.00;;
51925;SDS011;37952;51.938;15.480;2022-11-20T17:59:05;12.40;;;8.50;;
51925;SDS011;37952;51.938;15.480;2022-11-20T18:02:08;10.70;;;9.50;;
51925;SDS011;37952;51.938;15.480;2022-11-20T18:05:11;13.90;;;11.10;;
51925;SDS011;37952;51.938;15.480;2022-11-20T18:08:13;11.50;;;9.90;;
51925;SDS011;37952;51.938;15.480;2022-11-20T18:11:19;12.80;;;10.10;;
51925;SDS011;37952;51.938;15.480;2022-11-20T18:14:27;11.30;;;9.50;;
51925;SDS011;37952;51.938;15.480;2022-11-20T18:17:36;11.10;;;9.20;;
51925;SDS011;37952;51.938;15.480;2022-11-20T18:20:38;13.40;;;8.80;;
51925;SDS011;37952;51.938;15.480;2022-11-20T18:23:41;12.10;;;9.00;;
51925;SDS011;37952;51.938;15.480;2022-11-20T18:26:42;14.50;;;9.30;;
51925;SDS011;37952;51.938;15.480;2022-11-20T18:29:46;12.70;;;9.70;;
51925;SDS011;37952;51.938;15.480;2022-11-20T18:32:52;18.00;;;11.50;;
51925;SDS011;37952;51.938;15.480;2022-11-20T18:35:56;14.80;;;10.30;;
51925;SDS011;37952;51.938;15.480;2022-11-20T18:38:58;12.80;;;11.20;;
51925;SDS011;37952;51.938;15.480;2022-11-20T18:42:01;12.40;;;11.00;;
51925;SDS011;37952;51.938;15.480;2022-11-20T18:45:22;15.90;;;12.00;;
51925;SDS011;37952;51.938;15.480;2022-11-20T18:48:23;16.30;;;12.00;;
51925;SDS011;37952;51.938;15.480;2022-11-20T18:51:28;16.80;;;9.80;;
51925;SDS011;37952;51.938;15.480;2022-11-20T18:54:36;11.00;;;8.40;;
51925;SDS011;37952;51.938;15.480;2022-11-20T18:57:37;11.40;;;9.20;;
51925;SDS011;37952;51.938;15.480;2022-11-20T19:00:39;14.30;;;8.70;;
51925;SDS011;37952;51.938;15.480;2022-11-20T19:03:40;13.20;;;9.90;;
51925;SDS011;37952;51.938;15.480;2022-11-20T19:06:44;12.30;;;10.30;;
51925;SDS011;37952;51.938;15.480;2022-11-20T19:09:50;12.20;;;10.30;;
51925;SDS011;37952;51.938;15.480;2022-11-20T19:12:57;11.50;;;9.80;;
51925;SDS011;37952;51.938;15.480;2022-11-20T19:16:06;14.60;;;9.40;;
51925;SDS011;37952;51.938;15.480;2022-11-20T19:19:10;16.20;;;11.50;;
51925;SDS011;37952;51.938;15.480;2022-11-20T19:22:12;21.20;;;11.90;;
51925;SDS011;37952;51.938;15.480;2022-11-20T19:25:13;16.40;;;11.60;;
51925;SDS011;37952;51.938;15.480;2022-11-20T19:28:15;13.80;;;11.10;;
51925;SDS011;37952;51.938;15.480;2022-11-20T19:31:18;12.20;;;10.60;;
51925;SDS011;37952;51.938;15.480;2022-11-20T19:34:25;16.10;;;11.90;;
51925;SDS011;37952;51.938;15.480;2022-11-20T19:37:27;13.30;;;11.20;;
51925;SDS011;37952;51.938;15.480;2022-11-20T19:40:29;12.20;;;9.50;;